Skip Navigation LinksHome page > Weather > Current weather Skip Navigation Links

Current Weather

Ben-Gurion Intl Apt, Tel Aviv, Israel

For information only: do not use for flight planning or navigation.
Latest weather
Observation time Wednesday, February 22, 2017 9:50 AM IST
Local time Wednesday, February 22, 2017 10:24 AM IST
Flight conditions Visual Meteorological Conditions
Winds
Wind direction North-Northwest (340°)
Wind speed 7 mph
Visibility 6.2 mi.
Sky condition
Ceiling unlimited
Sky clear
Temperature 61°F
Dewpoint 37°F
Altimeter 30.00 in.Hg
Derived measurements
Relative humidity 42%
Density altitude 300 ft.
Remarks
Ceiling and visibility OK.
No significant changes expected in the next two hours.
METAR LLBG 220750Z 34006KT CAVOK 16/03 Q1016 NOSIG

Settings

Location code

InnerDrive.Weather 4.0.6144.1 Release CLR 4.0.30319.34209
Copyright ©2015 Inner Drive Technology. All rights reserved. Portions Copyright ©1986-2015 David Braverman.

Find weather

Site navigation


Skip Navigation Links

Place info

Page info

PayPal - The safer, easier way to pay online!

Return home.

Copyright ©2017 Inner Drive Technology. Purveyors of fine, hand-crafted computer software. Page printed 2017-02-22T08:24:18 UTC.